createdAt,value
2023-01-19T00:00:33.322Z,93688.78
2023-01-19T00:02:59.711Z,93693.59
2023-01-19T00:05:25.984Z,93695.75
2023-01-19T00:07:52.236Z,93695.75
2023-01-19T00:10:18.474Z,93693.78
2023-01-19T00:12:44.708Z,93698.25
2023-01-19T00:15:10.980Z,93696.50
2023-01-19T00:17:37.225Z,93699.19
2023-01-19T00:20:03.497Z,93703.22
2023-01-19T00:22:29.751Z,93699.38
2023-01-19T00:24:55.998Z,93687.75
2023-01-19T00:27:22.267Z,93694.47
2023-01-19T00:29:48.527Z,93695.22
2023-01-19T00:32:14.795Z,93690.56
2023-01-19T00:34:41.061Z,93694.41
2023-01-19T00:37:07.317Z,93699.50
2023-01-19T00:39:33.581Z,93698.41
2023-01-19T00:41:59.845Z,93697.19
2023-01-19T00:44:26.105Z,93702.19
2023-01-19T00:46:52.351Z,93700.03
2023-01-19T00:49:18.606Z,93702.75
2023-01-19T00:51:44.847Z,93708.31
2023-01-19T00:54:11.092Z,93711.03
2023-01-19T00:56:37.345Z,93710.41
2023-01-19T00:59:03.665Z,93707.16
2023-01-19T01:01:45.343Z,93715.09
2023-01-19T01:04:12.491Z,93720.44
2023-01-19T01:06:38.757Z,93720.16
2023-01-19T01:09:04.993Z,93727.00
2023-01-19T01:11:31.282Z,93726.38
2023-01-19T01:13:57.558Z,93720.34
2023-01-19T01:16:25.309Z,93722.94
2023-01-19T01:18:51.620Z,93735.34
2023-01-19T01:21:17.883Z,93729.94
2023-01-19T01:23:44.161Z,93732.03
2023-01-19T01:26:10.425Z,93736.09
2023-01-19T01:28:36.688Z,93740.22
2023-01-19T01:31:02.948Z,93744.50
2023-01-19T01:33:41.158Z,93735.88
2023-01-19T01:36:08.182Z,93741.03
2023-01-19T01:38:34.535Z,93734.88
2023-01-19T01:41:00.804Z,93734.78
2023-01-19T01:43:27.103Z,93743.69
2023-01-19T01:45:53.398Z,93743.38
2023-01-19T01:48:19.639Z,93743.50
2023-01-19T01:50:45.880Z,93740.25
2023-01-19T01:53:12.456Z,93740.72
2023-01-19T01:55:38.801Z,93747.63
2023-01-19T01:58:05.060Z,93739.09
2023-01-19T02:00:31.544Z,93743.16
2023-01-19T02:02:58.338Z,93740.44
2023-01-19T02:05:25.001Z,93742.78
2023-01-19T02:07:51.251Z,93744.97
2023-01-19T02:10:17.528Z,93751.13
2023-01-19T02:12:43.766Z,93742.09
2023-01-19T02:15:10.004Z,93749.78
2023-01-19T02:17:36.248Z,93739.81
2023-01-19T02:20:02.532Z,93742.31
2023-01-19T02:22:28.973Z,93737.88
2023-01-19T02:24:55.237Z,93744.41
2023-01-19T02:27:21.495Z,93737.63
2023-01-19T02:29:47.860Z,93734.94
2023-01-19T02:32:14.096Z,93741.25
2023-01-19T02:34:40.339Z,93738.69
2023-01-19T02:37:06.712Z,93734.81
2023-01-19T02:39:32.992Z,93739.81
2023-01-19T02:41:59.258Z,93741.97
2023-01-19T02:44:25.520Z,93740.22
2023-01-19T02:46:51.816Z,93745.16
2023-01-19T02:49:18.065Z,93742.13
2023-01-19T02:51:44.313Z,93744.69
2023-01-19T02:54:10.590Z,93746.00
2023-01-19T02:56:36.853Z,93746.50
2023-01-19T02:59:03.115Z,93746.28
2023-01-19T03:01:29.439Z,93748.88
2023-01-19T03:03:55.749Z,93745.22
2023-01-19T03:06:22.092Z,93740.41
2023-01-19T03:08:48.373Z,93741.34
2023-01-19T03:11:14.614Z,93744.50
2023-01-19T03:13:40.861Z,93750.03
2023-01-19T03:16:07.159Z,93750.59
2023-01-19T03:18:33.514Z,93745.69
2023-01-19T03:20:59.932Z,93754.66
2023-01-19T03:23:26.194Z,93753.16
2023-01-19T03:25:52.427Z,93752.81
2023-01-19T03:28:18.683Z,93743.06
2023-01-19T03:30:44.987Z,93743.56
2023-01-19T03:33:11.263Z,93743.47
2023-01-19T03:35:37.531Z,93745.81
2023-01-19T03:38:03.775Z,93739.09
2023-01-19T03:40:30.027Z,93742.13
2023-01-19T03:42:56.279Z,93736.53
2023-01-19T03:45:22.555Z,93738.88
2023-01-19T03:47:48.797Z,93742.13
2023-01-19T03:50:15.048Z,93750.31
2023-01-19T03:52:41.307Z,93752.88
2023-01-19T03:55:07.572Z,93752.06
2023-01-19T03:57:33.831Z,93751.50
2023-01-19T04:00:00.105Z,93753.38
2023-01-19T04:02:26.397Z,93760.84
2023-01-19T04:04:52.684Z,93751.97
2023-01-19T04:07:19.000Z,93750.91
2023-01-19T04:09:45.313Z,93753.50
2023-01-19T04:12:11.572Z,93752.56
2023-01-19T04:14:37.845Z,93749.97
2023-01-19T04:17:04.112Z,93760.38
2023-01-19T04:19:30.364Z,93756.75
2023-01-19T04:21:56.600Z,93761.56
2023-01-19T04:24:22.855Z,93754.91
2023-01-19T04:26:49.205Z,93760.41
2023-01-19T04:29:15.442Z,93759.56
2023-01-19T04:31:41.677Z,93767.53
2023-01-19T04:34:08.057Z,93766.72
2023-01-19T04:36:34.308Z,93770.34
2023-01-19T04:39:00.548Z,93769.06
2023-01-19T04:41:26.824Z,93773.84
2023-01-19T04:43:53.081Z,93775.34
2023-01-19T04:46:19.452Z,93768.72
2023-01-19T04:48:45.772Z,93777.34
2023-01-19T04:51:12.037Z,93783.31
2023-01-19T04:53:38.284Z,93782.28
2023-01-19T04:56:04.536Z,93779.94
2023-01-19T04:58:30.791Z,93785.91
2023-01-19T05:00:57.074Z,93779.00
2023-01-19T05:03:25.619Z,93777.47
2023-01-19T05:05:52.680Z,93777.94
2023-01-19T05:08:18.933Z,93781.13
2023-01-19T05:10:45.172Z,93786.50
2023-01-19T05:13:11.463Z,93781.91
2023-01-19T05:15:37.751Z,93785.06
2023-01-19T05:18:04.003Z,93797.91
2023-01-19T05:20:30.337Z,93805.00
2023-01-19T05:22:56.610Z,93796.97
2023-01-19T05:25:22.877Z,93799.53
2023-01-19T05:27:49.136Z,93805.75
2023-01-19T05:30:15.371Z,93809.72
2023-01-19T05:32:41.622Z,93817.91
2023-01-19T05:35:07.882Z,93815.03
2023-01-19T05:37:34.159Z,93817.13
2023-01-19T05:40:00.467Z,93815.38
2023-01-19T05:42:26.755Z,93812.06
2023-01-19T05:44:53.030Z,93817.47
2023-01-19T05:47:19.311Z,93817.59
2023-01-19T05:49:45.671Z,93820.69
2023-01-19T05:52:11.943Z,93820.56
2023-01-19T05:54:38.192Z,93821.97
2023-01-19T05:57:04.451Z,93826.50
2023-01-19T05:59:30.707Z,93826.72
2023-01-19T06:01:57.042Z,93832.47
2023-01-19T06:04:23.390Z,93830.84
2023-01-19T06:06:49.660Z,93836.06
2023-01-19T06:09:15.921Z,93844.56
2023-01-19T06:11:42.164Z,93840.59
2023-01-19T06:14:08.406Z,93843.03
2023-01-19T06:16:34.703Z,93848.06
2023-01-19T06:19:00.975Z,93839.44
2023-01-19T06:21:27.229Z,93842.22
2023-01-19T06:23:53.485Z,93848.66
2023-01-19T06:26:19.728Z,93851.44
2023-01-19T06:28:45.987Z,93846.00
2023-01-19T06:31:12.280Z,93845.75
2023-01-19T06:33:38.555Z,93850.91
2023-01-19T06:36:04.808Z,93856.13
2023-01-19T06:38:31.064Z,93854.66
2023-01-19T06:40:57.322Z,93864.69
2023-01-19T06:43:23.572Z,93861.78
2023-01-19T06:45:49.856Z,93856.94
2023-01-19T06:48:16.136Z,93855.97
2023-01-19T06:50:42.387Z,93858.94
2023-01-19T06:53:08.642Z,93867.28
2023-01-19T06:55:34.885Z,93867.72
2023-01-19T06:58:01.135Z,93869.31
2023-01-19T07:00:27.376Z,93866.19
2023-01-19T07:02:53.662Z,93863.47
2023-01-19T07:05:19.955Z,93858.94
2023-01-19T07:07:46.210Z,93865.41
2023-01-19T07:10:12.488Z,93865.44
2023-01-19T07:12:38.765Z,93865.16
2023-01-19T07:15:05.137Z,93865.19
2023-01-19T07:17:31.379Z,93874.53
2023-01-19T07:19:57.632Z,93875.81
2023-01-19T07:22:23.891Z,93878.50
2023-01-19T07:24:50.128Z,93880.50
2023-01-19T07:27:16.379Z,93871.47
2023-01-19T07:29:42.656Z,93877.75
2023-01-19T07:32:08.956Z,93876.94
2023-01-19T07:34:35.203Z,93885.28
2023-01-19T07:37:01.473Z,93886.09
2023-01-19T07:39:27.735Z,93884.91
2023-01-19T07:41:53.995Z,93890.28
2023-01-19T07:44:20.241Z,93891.94
2023-01-19T07:46:46.491Z,93902.09
2023-01-19T07:49:12.764Z,93894.94
2023-01-19T07:51:39.048Z,93900.19
2023-01-19T07:54:05.314Z,93900.31
2023-01-19T07:56:32.820Z,93901.72
2023-01-19T07:58:59.923Z,93900.31
2023-01-19T08:01:26.204Z,93911.19
2023-01-19T08:03:52.676Z,93910.84
2023-01-19T08:06:18.915Z,93913.63
2023-01-19T08:08:45.147Z,93919.56
2023-01-19T08:11:11.421Z,93923.66
2023-01-19T08:13:37.684Z,93933.50
2023-01-19T08:16:03.978Z,93928.28
2023-01-19T08:18:30.248Z,93922.09
2023-01-19T08:20:56.518Z,93931.81
2023-01-19T08:23:22.772Z,93929.94
2023-01-19T08:25:49.035Z,93929.25
2023-01-19T08:28:15.297Z,93931.13
2023-01-19T08:30:41.614Z,93941.34
2023-01-19T08:33:07.947Z,93932.91
2023-01-19T08:35:34.208Z,93943.19
2023-01-19T08:38:00.460Z,93948.00
2023-01-19T08:40:26.715Z,93952.69
2023-01-19T08:42:52.968Z,93945.81
2023-01-19T08:45:19.240Z,93944.50
2023-01-19T08:47:45.497Z,93948.00
2023-01-19T08:50:11.743Z,93947.69
2023-01-19T08:52:37.987Z,93946.25
2023-01-19T08:55:04.231Z,93951.31
2023-01-19T08:57:30.485Z,93952.59
2023-01-19T08:59:56.724Z,93957.03
2023-01-19T09:02:23.131Z,93956.69
2023-01-19T09:04:49.408Z,93950.94
2023-01-19T09:07:15.659Z,93957.13
2023-01-19T09:09:41.924Z,93956.78
2023-01-19T09:12:08.171Z,93963.53
2023-01-19T09:14:34.442Z,93967.63
2023-01-19T09:17:00.723Z,93965.81
2023-01-19T09:19:26.964Z,93963.44
2023-01-19T09:21:53.243Z,93967.06
2023-01-19T09:24:19.498Z,93968.66
2023-01-19T09:26:45.755Z,93971.44
2023-01-19T09:29:12.019Z,93967.66
2023-01-19T09:31:38.315Z,93969.06
2023-01-19T09:34:04.594Z,93977.88
2023-01-19T09:36:30.841Z,93970.00
2023-01-19T09:38:57.092Z,93969.88
2023-01-19T09:41:23.341Z,93966.13
2023-01-19T09:43:49.594Z,93969.78
2023-01-19T09:46:15.943Z,93968.44
2023-01-19T09:48:42.228Z,93978.13
2023-01-19T09:51:08.496Z,93966.91
2023-01-19T09:53:34.767Z,93970.53
2023-01-19T09:56:01.040Z,93972.44
2023-01-19T09:58:27.283Z,93969.22
2023-01-19T10:00:53.660Z,93976.47
2023-01-19T10:03:20.081Z,93974.00
2023-01-19T10:05:46.425Z,93969.84
2023-01-19T10:08:12.707Z,93972.25
2023-01-19T10:10:38.959Z,93968.03
2023-01-19T10:13:05.225Z,93971.31
2023-01-19T10:15:31.468Z,93970.94
2023-01-19T10:17:57.740Z,93966.34
2023-01-19T10:20:24.039Z,93968.03
2023-01-19T10:22:50.305Z,93969.09
2023-01-19T10:25:16.662Z,93972.41
2023-01-19T10:27:43.015Z,93965.22
2023-01-19T10:30:09.273Z,93963.00
2023-01-19T10:32:35.588Z,93970.38
2023-01-19T10:35:01.887Z,93958.53
2023-01-19T10:37:31.055Z,93962.91
2023-01-19T10:39:57.376Z,93960.56
2023-01-19T10:42:23.714Z,93961.38
2023-01-19T10:44:49.966Z,93963.97
2023-01-19T10:47:16.217Z,93961.94
2023-01-19T10:49:42.498Z,93957.00
2023-01-19T10:52:08.803Z,93956.31
2023-01-19T10:54:35.079Z,93948.13
2023-01-19T10:57:01.413Z,93950.88
2023-01-19T10:59:27.700Z,93946.91
2023-01-19T11:01:54.100Z,93942.78
2023-01-19T11:04:20.429Z,93937.19
2023-01-19T11:06:46.692Z,93938.56
2023-01-19T11:09:12.949Z,93937.75
2023-01-19T11:11:39.206Z,93938.03
2023-01-19T11:14:05.461Z,93936.03
2023-01-19T11:16:31.869Z,93934.25
2023-01-19T11:18:58.241Z,93934.81
2023-01-19T11:21:25.894Z,93930.19
2023-01-19T11:23:52.332Z,93928.97
2023-01-19T11:26:18.580Z,93926.66
2023-01-19T11:28:45.130Z,93922.69
2023-01-19T11:31:11.485Z,93920.66
2023-01-19T11:33:37.808Z,93919.28
2023-01-19T11:36:04.061Z,93915.28
2023-01-19T11:38:30.331Z,93908.63
2023-01-19T11:40:56.570Z,93911.63
2023-01-19T11:43:22.821Z,93901.53
2023-01-19T11:45:49.119Z,93905.34
2023-01-19T11:48:15.396Z,93901.91
2023-01-19T11:50:41.660Z,93899.03
2023-01-19T11:53:07.904Z,93894.00
2023-01-19T11:55:34.224Z,93892.63
2023-01-19T11:58:00.820Z,93885.69
2023-01-19T12:00:27.204Z,93893.13
2023-01-19T12:02:53.514Z,93893.66
2023-01-19T12:05:19.754Z,93886.31
2023-01-19T12:07:45.993Z,93891.19
2023-01-19T12:10:12.263Z,93877.41
2023-01-19T12:12:38.531Z,93882.88
2023-01-19T12:15:04.771Z,93879.84
2023-01-19T12:17:31.019Z,93878.22
2023-01-19T12:19:57.275Z,93873.81
2023-01-19T12:22:23.577Z,93877.88
2023-01-19T12:24:49.820Z,93873.97
2023-01-19T12:27:16.068Z,93876.56
2023-01-19T12:29:42.790Z,93870.00
2023-01-19T12:32:09.205Z,93873.81
2023-01-19T12:34:35.470Z,93870.81
2023-01-19T12:37:02.771Z,93866.94
2023-01-19T12:39:29.042Z,93870.22
2023-01-19T12:41:55.299Z,93865.81
2023-01-19T12:44:21.538Z,93862.25
2023-01-19T12:46:47.780Z,93864.69
2023-01-19T12:49:14.113Z,93860.63
2023-01-19T12:51:40.353Z,93850.81
2023-01-19T12:54:06.917Z,93856.63
2023-01-19T12:56:33.433Z,93858.44
2023-01-19T12:58:59.692Z,93861.78
2023-01-19T13:01:26.013Z,93855.88
2023-01-19T13:03:52.318Z,93858.78
2023-01-19T13:06:18.552Z,93859.75
2023-01-19T13:08:44.821Z,93859.31
2023-01-19T13:11:11.072Z,93860.50
2023-01-19T13:13:37.376Z,93861.56
2023-01-19T13:16:03.716Z,93858.97
2023-01-19T13:18:29.983Z,93860.81
2023-01-19T13:20:56.228Z,93852.06
2023-01-19T13:23:22.489Z,93857.34
2023-01-19T13:25:48.783Z,93858.97
2023-01-19T13:28:15.041Z,93861.72
2023-01-19T13:30:41.472Z,93860.09
2023-01-19T13:33:07.812Z,93861.38
2023-01-19T13:35:34.070Z,93860.41
2023-01-19T13:38:00.315Z,93852.22
2023-01-19T13:40:26.560Z,93855.88
2023-01-19T13:42:52.848Z,93860.31
2023-01-19T13:45:19.091Z,93856.31
2023-01-19T13:47:45.355Z,93845.91
2023-01-19T13:50:11.629Z,93855.22
2023-01-19T13:52:37.940Z,93846.00
2023-01-19T13:55:04.643Z,93856.03
2023-01-19T13:57:31.191Z,93842.88
2023-01-19T13:59:57.449Z,93851.41
2023-01-19T14:02:23.826Z,93842.88
2023-01-19T14:04:50.176Z,93837.53
2023-01-19T14:07:16.463Z,93842.06
2023-01-19T14:09:42.749Z,93843.41
2023-01-19T14:12:09.030Z,93838.06
2023-01-19T14:14:35.316Z,93841.50
2023-01-19T14:17:01.582Z,93840.81
2023-01-19T14:19:27.855Z,93832.34
2023-01-19T14:21:54.121Z,93835.38
2023-01-19T14:24:20.368Z,93834.78
2023-01-19T14:26:46.817Z,93832.69
2023-01-19T14:29:13.104Z,93834.03
2023-01-19T14:31:39.403Z,93832.09
2023-01-19T14:34:05.724Z,93829.16
2023-01-19T14:36:31.998Z,93825.25
2023-01-19T14:38:58.259Z,93826.22
2023-01-19T14:41:24.514Z,93820.41
2023-01-19T14:43:50.784Z,93817.97
2023-01-19T14:46:17.055Z,93822.03
2023-01-19T14:48:43.339Z,93817.16
2023-01-19T14:51:09.604Z,93813.69
2023-01-19T14:53:35.864Z,93818.38
2023-01-19T14:56:02.127Z,93813.78
2023-01-19T14:58:28.389Z,93813.56
2023-01-19T15:00:54.758Z,93818.66
2023-01-19T15:03:23.357Z,93817.41
2023-01-19T15:05:49.669Z,93803.13
2023-01-19T15:08:15.945Z,93809.34
2023-01-19T15:10:42.181Z,93808.31
2023-01-19T15:13:08.421Z,93807.47
2023-01-19T15:15:34.660Z,93816.06
2023-01-19T15:18:00.931Z,93805.41
2023-01-19T15:20:27.320Z,93807.63
2023-01-19T15:22:53.562Z,93808.28
2023-01-19T15:25:19.830Z,93815.56
2023-01-19T15:27:46.086Z,93804.88
2023-01-19T15:30:12.339Z,93796.56
2023-01-19T15:32:38.597Z,93805.63
2023-01-19T15:35:04.857Z,93804.66
2023-01-19T15:37:31.096Z,93798.25
2023-01-19T15:39:57.348Z,93797.94
2023-01-19T15:42:23.580Z,93801.28
2023-01-19T15:44:49.835Z,93795.78
2023-01-19T15:47:16.124Z,93790.47
2023-01-19T15:49:42.380Z,93796.16
2023-01-19T15:52:08.628Z,93797.53
2023-01-19T15:54:34.893Z,93791.50
2023-01-19T15:57:01.142Z,93790.63
2023-01-19T15:59:27.382Z,93794.59
2023-01-19T16:01:53.831Z,93787.78
2023-01-19T16:04:20.147Z,93779.41
2023-01-19T16:06:46.417Z,93782.16
2023-01-19T16:09:12.664Z,93788.72
2023-01-19T16:11:38.940Z,93787.81
2023-01-19T16:14:05.241Z,93789.06
2023-01-19T16:16:31.555Z,93783.63
2023-01-19T16:18:57.900Z,93781.94
2023-01-19T16:21:24.160Z,93780.22
2023-01-19T16:23:50.411Z,93774.78
2023-01-19T16:26:17.609Z,93778.47
2023-01-19T16:28:43.977Z,93776.97
2023-01-19T16:31:10.233Z,93770.69
2023-01-19T16:33:36.497Z,93773.59
2023-01-19T16:36:02.751Z,93774.00
2023-01-19T16:38:28.990Z,93771.56
2023-01-19T16:40:55.244Z,93773.47
2023-01-19T16:43:21.700Z,93766.66
2023-01-19T16:45:48.058Z,93768.97
2023-01-19T16:48:14.323Z,93763.63
2023-01-19T16:50:40.579Z,93772.31
2023-01-19T16:53:06.931Z,93767.94
2023-01-19T16:55:33.170Z,93769.28
2023-01-19T16:57:59.433Z,93765.06
2023-01-19T17:00:25.705Z,93761.41
2023-01-19T17:02:52.032Z,93761.09
2023-01-19T17:05:18.310Z,93758.53
2023-01-19T17:07:44.556Z,93760.16
2023-01-19T17:10:11.017Z,93762.56
2023-01-19T17:12:37.344Z,93751.09
2023-01-19T17:15:03.615Z,93755.34
2023-01-19T17:17:29.875Z,93762.19
2023-01-19T17:19:56.122Z,93757.97
2023-01-19T17:22:22.388Z,93756.34
2023-01-19T17:24:48.672Z,93757.59
2023-01-19T17:27:14.957Z,93753.50
2023-01-19T17:29:41.223Z,93745.88
2023-01-19T17:32:07.648Z,93745.72
2023-01-19T17:34:34.092Z,93751.25
2023-01-19T17:37:00.382Z,93756.50
2023-01-19T17:39:26.633Z,93742.25
2023-01-19T17:41:52.878Z,93749.03
2023-01-19T17:44:19.133Z,93739.75
2023-01-19T17:46:45.388Z,93737.09
2023-01-19T17:49:11.661Z,93740.53
2023-01-19T17:51:37.927Z,93738.78
2023-01-19T17:54:04.207Z,93733.00
2023-01-19T17:56:30.522Z,93733.19
2023-01-19T17:58:56.767Z,93726.00
2023-01-19T18:01:23.156Z,93733.78
2023-01-19T18:03:49.497Z,93728.34
2023-01-19T18:06:15.786Z,93730.16
2023-01-19T18:08:42.053Z,93736.00
2023-01-19T18:11:08.312Z,93731.19
2023-01-19T18:13:34.556Z,93725.91
2023-01-19T18:16:00.820Z,93725.22
2023-01-19T18:18:27.104Z,93734.28
2023-01-19T18:20:53.371Z,93724.19
2023-01-19T18:23:19.639Z,93723.91
2023-01-19T18:25:45.894Z,93719.88
2023-01-19T18:28:12.132Z,93715.03
2023-01-19T18:30:38.488Z,93717.53
2023-01-19T18:33:04.822Z,93708.78
2023-01-19T18:35:31.092Z,93718.31
2023-01-19T18:37:57.448Z,93710.03
2023-01-19T18:40:23.692Z,93708.94
2023-01-19T18:42:50.040Z,93705.03
2023-01-19T18:45:16.288Z,93698.16
2023-01-19T18:47:42.548Z,93702.50
2023-01-19T18:50:08.812Z,93697.00
2023-01-19T18:52:35.060Z,93697.50
2023-01-19T18:55:01.325Z,93694.88
2023-01-19T18:57:27.640Z,93697.88
2023-01-19T18:59:53.920Z,93687.56
2023-01-19T19:02:20.218Z,93696.34
2023-01-19T19:04:46.517Z,93689.88
2023-01-19T19:07:12.784Z,93691.81
2023-01-19T19:09:39.038Z,93690.22
2023-01-19T19:12:05.304Z,93681.97
2023-01-19T19:14:31.573Z,93695.28
2023-01-19T19:16:57.889Z,93696.00
2023-01-19T19:19:24.137Z,93705.09
2023-01-19T19:21:50.396Z,93700.88
2023-01-19T19:24:16.689Z,93692.97
2023-01-19T19:26:42.942Z,93691.88
2023-01-19T19:29:09.201Z,93693.75
2023-01-19T19:31:35.498Z,93690.50
2023-01-19T19:34:01.772Z,93703.38
2023-01-19T19:36:28.057Z,93709.34
2023-01-19T19:38:54.323Z,93702.75
2023-01-19T19:41:20.617Z,93702.16
2023-01-19T19:43:46.911Z,93698.13
2023-01-19T19:46:13.239Z,93702.63
2023-01-19T19:48:39.631Z,93697.78
2023-01-19T19:51:17.120Z,93698.59
2023-01-19T19:53:44.532Z,93701.31
2023-01-19T19:56:10.788Z,93698.59
2023-01-19T19:58:37.054Z,93695.91
2023-01-19T20:01:03.461Z,93694.34
2023-01-19T20:03:29.725Z,93694.84
2023-01-19T20:05:55.968Z,93695.16
2023-01-19T20:08:22.239Z,93701.69
2023-01-19T20:10:48.549Z,93702.50
2023-01-19T20:13:14.811Z,93699.63
2023-01-19T20:15:41.106Z,93703.88
2023-01-19T20:18:07.380Z,93703.56
2023-01-19T20:20:33.645Z,93705.06
2023-01-19T20:22:59.926Z,93702.50
2023-01-19T20:25:26.197Z,93707.66
2023-01-19T20:27:52.445Z,93706.28
2023-01-19T20:30:18.745Z,93701.09
2023-01-19T20:32:45.061Z,93708.50
2023-01-19T20:35:11.639Z,93706.56
2023-01-19T20:37:38.000Z,93713.97
2023-01-19T20:40:04.269Z,93720.19
2023-01-19T20:42:30.619Z,93715.16
2023-01-19T20:44:56.863Z,93717.22
2023-01-19T20:47:23.115Z,93714.28
2023-01-19T20:49:49.398Z,93723.97
2023-01-19T20:52:15.642Z,93721.38
2023-01-19T20:54:41.921Z,93724.72
2023-01-19T20:57:08.180Z,93724.59
2023-01-19T20:59:34.444Z,93724.28
2023-01-19T21:02:00.809Z,93733.72
2023-01-19T21:04:27.143Z,93728.56
2023-01-19T21:06:53.425Z,93724.13
2023-01-19T21:09:19.689Z,93731.81
2023-01-19T21:11:45.968Z,93728.28
2023-01-19T21:14:12.228Z,93730.00
2023-01-19T21:16:38.548Z,93726.41
2023-01-19T21:19:04.829Z,93732.88
2023-01-19T21:21:31.978Z,93743.13
2023-01-19T21:23:58.506Z,93742.75
2023-01-19T21:26:24.776Z,93737.91
2023-01-19T21:28:51.059Z,93740.34
2023-01-19T21:31:17.359Z,93739.41
2023-01-19T21:33:43.667Z,93743.00
2023-01-19T21:36:09.913Z,93745.84
2023-01-19T21:38:36.178Z,93749.56
2023-01-19T21:41:02.556Z,93751.97
2023-01-19T21:43:28.831Z,93761.31
2023-01-19T21:45:55.168Z,93764.59
2023-01-19T21:48:21.458Z,93765.53
2023-01-19T21:50:47.731Z,93764.28
2023-01-19T21:53:14.001Z,93773.78
2023-01-19T21:55:40.284Z,93770.59
2023-01-19T21:58:06.541Z,93775.69
2023-01-19T22:00:32.800Z,93780.09
2023-01-19T22:03:04.112Z,93781.34
2023-01-19T22:05:30.819Z,93791.53
2023-01-19T22:07:57.096Z,93786.50
2023-01-19T22:10:23.369Z,93798.22
2023-01-19T22:12:49.631Z,93798.44
2023-01-19T22:15:15.900Z,93807.38
2023-01-19T22:17:42.408Z,93807.63
2023-01-19T22:20:08.695Z,93810.25
2023-01-19T22:22:34.980Z,93813.66
2023-01-19T22:25:01.237Z,93812.63
2023-01-19T22:27:27.508Z,93815.69
2023-01-19T22:29:53.764Z,93820.63
2023-01-19T22:32:20.027Z,93817.72
2023-01-19T22:34:46.331Z,93818.91
2023-01-19T22:37:12.604Z,93824.88
2023-01-19T22:39:38.851Z,93820.16
2023-01-19T22:42:05.204Z,93825.16
2023-01-19T22:44:31.498Z,93826.38
2023-01-19T22:46:57.773Z,93826.97
2023-01-19T22:49:24.033Z,93820.28
2023-01-19T22:51:50.280Z,93818.50
2023-01-19T22:54:16.569Z,93821.97
2023-01-19T22:56:42.867Z,93820.56
2023-01-19T22:59:09.160Z,93824.22
2023-01-19T23:01:35.599Z,93820.34
2023-01-19T23:04:01.909Z,93824.88
2023-01-19T23:06:28.196Z,93822.22
2023-01-19T23:08:54.447Z,93817.25
2023-01-19T23:11:20.719Z,93816.44
2023-01-19T23:13:47.002Z,93823.94
2023-01-19T23:16:13.278Z,93819.81
2023-01-19T23:18:39.568Z,93823.47
2023-01-19T23:21:05.823Z,93829.78
2023-01-19T23:23:32.076Z,93823.44
2023-01-19T23:25:58.320Z,93827.63
2023-01-19T23:28:24.583Z,93831.13
2023-01-19T23:30:50.939Z,93830.53
2023-01-19T23:33:17.267Z,93838.78
2023-01-19T23:35:43.517Z,93826.13
2023-01-19T23:38:09.799Z,93830.09
2023-01-19T23:40:36.064Z,93840.81
2023-01-19T23:43:02.330Z,93837.84
2023-01-19T23:45:28.592Z,93844.66
2023-01-19T23:47:54.864Z,93841.41
2023-01-19T23:50:21.116Z,93844.19
2023-01-19T23:52:47.370Z,93842.44
2023-01-19T23:55:13.812Z,93851.66
2023-01-19T23:57:40.187Z,93848.16
